Tian Fu — VRPA3 — position and weather

sailwx.info

Track history (hours):
 
Tides and Currents Weather Stations Pressure Air Temp Water Temp Dewpoint Dewpoint Depression Visibility Wind Speed Wind Dir Waves Ship Positions

Tian Fu

Last reported at 2018-Jan-21 12:46 UTC. Time now 2018-Jan-22 16:16 UTC.
Position N 36°18' E 014°50'.

Length 190 m; draft 10.7 m.

Type: Cargo ship. MMSI: 477588500.

Date/timePositionNaut miles runAvg speedWind from/ knotsBaromVisibWave heightAir tempDewpointWater temp
2018-Jan-21 12:46N 36°18' E 014°50'414.8
2018-Jan-21 12:29N 36°19' E 014°45'714.8
2018-Jan-21 11:59N 36°21' E 014°36'714.8
2018-Jan-21 11:30N 36°24' E 014°28'714.6
2018-Jan-21 11:00N 36°26' E 014°19'814.7
2018-Jan-21 10:27N 36°28' E 014°10'914.6
2018-Jan-21 09:49N 36°32' E 013°59'814.2
2018-Jan-21 09:14N 36°34' E 013°49'  
2018-Jan-18 17:14N 36°03' W 004°33'914.3
2018-Jan-18 16:38N 36°02' W 004°44'214.5
2018-Jan-18 16:30N 36°02' W 004°46'714.1
2018-Jan-18 16:01N 36°02' W 004°55'714.0
2018-Jan-18 15:31N 36°00' W 005°03'714.0
2018-Jan-18 15:00N 35°60' W 005°12'713.4
2018-Jan-18 14:31N 35°59' W 005°20'612.6
2018-Jan-18 14:01N 35°57' W 005°28'611.9
2018-Jan-18 13:30N 35°56' W 005°35'510.8
2018-Jan-18 13:01N 35°55' W 005°41'5 9.1
2018-Jan-18 12:30N 35°54' W 005°47'  
2018-Jan-12 15:01N 57°26' E 011°27'815.3
2018-Jan-12 14:31N 57°19' E 011°32'815.2
2018-Jan-12 14:01N 57°12' E 011°37'714.4
2018-Jan-12 13:31N 57°05' E 011°41'714.5
2018-Jan-12 13:01N 56°58' E 011°46'814.6
2018-Jan-12 12:29N 56°51' E 011°51'713.2
2018-Jan-12 11:56N 56°44' E 011°52'1513.9
2018-Jan-12 10:53N 56°31' E 011°39'613.5
2018-Jan-12 10:25N 56°25' E 011°33'713.6
2018-Jan-12 09:55N 56°20' E 011°26'814.1
2018-Jan-12 09:20N 56°13' E 011°19'514.1
2018-Jan-12 09:00N 56°09' E 011°14'714.2
2018-Jan-12 08:29N 56°03' E 011°07'714.3
2018-Jan-12 08:00N 55°57' E 011°00'1013.7
2018-Jan-12 07:15N 55°48' E 010°49'514.3
2018-Jan-12 06:56N 55°44' E 010°48'914.5
2018-Jan-12 06:19N 55°35' E 010°49'615.2
2018-Jan-12 05:54N 55°29' E 010°54'614.5
2018-Jan-12 05:29N 55°24' E 011°00'714.3
2018-Jan-12 05:01N 55°18' E 011°03'612.1
2018-Jan-12 04:30N 55°12' E 011°05'510.7
2018-Jan-12 04:00N 55°08' E 010°59'714.3
2018-Jan-12 03:30N 55°00' E 010°59'713.8
2018-Jan-12 03:00N 54°55' E 010°52'714.6
2018-Jan-12 02:30N 54°48' E 010°50'713.5
2018-Jan-12 02:00N 54°41' E 010°47'714.6
2018-Jan-12 01:31N 54°37' E 010°57'714.4
2018-Jan-12 01:00N 54°36' E 011°10'714.8
2018-Jan-12 00:30N 54°33' E 011°21'714.5
2018-Jan-12 00:01N 54°30' E 011°32'714.1
2018-Jan-11 23:30N 54°27' E 011°43'714.1
2018-Jan-11 23:01N 54°27' E 011°55'714.1
2018-Jan-11 22:30N 54°27' E 012°07'6313.3
2018-Jan-11 17:44N 54°60' E 013°41'1414.4
2018-Jan-11 16:43N 55°05' E 014°04'314.5
2018-Jan-11 16:30N 55°08' E 014°08'714.6
2018-Jan-11 16:01N 55°13' E 014°17'714.7
2018-Jan-11 15:30N 55°18' E 014°25'714.7
2018-Jan-11 15:00N 55°24' E 014°34'714.6
2018-Jan-11 14:30N 55°29' E 014°44'714.6
2018-Jan-11 14:00N 55°32' E 014°55'914.5
2018-Jan-11 13:24N 55°36' E 015°09'714.4
2018-Jan-11 12:55N 55°38' E 015°21'  
Track history (hours):
 
Tides and Currents Weather Stations Pressure Air Temp Water Temp Dewpoint Dewpoint Depression Visibility Wind Speed Wind Dir Waves Ship Positions

Tian Fu

Last reported at 2018-Jan-21 12:46 UTC. Time now 2018-Jan-22 16:16 UTC.
Position N 36°18' E 014°50'.

Length 190 m; draft 10.7 m.

Type: Cargo ship. MMSI: 477588500.

Date/timePositionNaut miles runAvg speedWind from/ knotsBaromVisibWave heightAir tempDewpointWater temp
2018-Jan-21 12:46N 36°18' E 014°50'414.8
2018-Jan-21 12:29N 36°19' E 014°45'714.8
2018-Jan-21 11:59N 36°21' E 014°36'714.8
2018-Jan-21 11:30N 36°24' E 014°28'714.6
2018-Jan-21 11:00N 36°26' E 014°19'814.7
2018-Jan-21 10:27N 36°28' E 014°10'914.6
2018-Jan-21 09:49N 36°32' E 013°59'814.2
2018-Jan-21 09:14N 36°34' E 013°49'  
2018-Jan-18 17:14N 36°03' W 004°33'914.3
2018-Jan-18 16:38N 36°02' W 004°44'214.5
2018-Jan-18 16:30N 36°02' W 004°46'714.1
2018-Jan-18 16:01N 36°02' W 004°55'714.0
2018-Jan-18 15:31N 36°00' W 005°03'714.0
2018-Jan-18 15:00N 35°60' W 005°12'713.4
2018-Jan-18 14:31N 35°59' W 005°20'612.6
2018-Jan-18 14:01N 35°57' W 005°28'611.9
2018-Jan-18 13:30N 35°56' W 005°35'510.8
2018-Jan-18 13:01N 35°55' W 005°41'5 9.1
2018-Jan-18 12:30N 35°54' W 005°47'  
2018-Jan-12 15:01N 57°26' E 011°27'815.3
2018-Jan-12 14:31N 57°19' E 011°32'815.2
2018-Jan-12 14:01N 57°12' E 011°37'714.4
2018-Jan-12 13:31N 57°05' E 011°41'714.5
2018-Jan-12 13:01N 56°58' E 011°46'814.6
2018-Jan-12 12:29N 56°51' E 011°51'713.2
2018-Jan-12 11:56N 56°44' E 011°52'1513.9
2018-Jan-12 10:53N 56°31' E 011°39'613.5
2018-Jan-12 10:25N 56°25' E 011°33'713.6
2018-Jan-12 09:55N 56°20' E 011°26'814.1
2018-Jan-12 09:20N 56°13' E 011°19'514.1
2018-Jan-12 09:00N 56°09' E 011°14'714.2
2018-Jan-12 08:29N 56°03' E 011°07'714.3
2018-Jan-12 08:00N 55°57' E 011°00'1013.7
2018-Jan-12 07:15N 55°48' E 010°49'514.3
2018-Jan-12 06:56N 55°44' E 010°48'914.5
2018-Jan-12 06:19N 55°35' E 010°49'615.2
2018-Jan-12 05:54N 55°29' E 010°54'614.5
2018-Jan-12 05:29N 55°24' E 011°00'714.3
2018-Jan-12 05:01N 55°18' E 011°03'612.1
2018-Jan-12 04:30N 55°12' E 011°05'510.7
2018-Jan-12 04:00N 55°08' E 010°59'714.3
2018-Jan-12 03:30N 55°00' E 010°59'713.8
2018-Jan-12 03:00N 54°55' E 010°52'714.6
2018-Jan-12 02:30N 54°48' E 010°50'713.5
2018-Jan-12 02:00N 54°41' E 010°47'714.6
2018-Jan-12 01:31N 54°37' E 010°57'714.4
2018-Jan-12 01:00N 54°36' E 011°10'714.8
2018-Jan-12 00:30N 54°33' E 011°21'714.5
2018-Jan-12 00:01N 54°30' E 011°32'714.1
2018-Jan-11 23:30N 54°27' E 011°43'714.1
2018-Jan-11 23:01N 54°27' E 011°55'714.1
2018-Jan-11 22:30N 54°27' E 012°07'6313.3
2018-Jan-11 17:44N 54°60' E 013°41'1414.4
2018-Jan-11 16:43N 55°05' E 014°04'314.5
2018-Jan-11 16:30N 55°08' E 014°08'714.6
2018-Jan-11 16:01N 55°13' E 014°17'714.7
2018-Jan-11 15:30N 55°18' E 014°25'714.7
2018-Jan-11 15:00N 55°24' E 014°34'714.6
2018-Jan-11 14:30N 55°29' E 014°44'714.6
2018-Jan-11 14:00N 55°32' E 014°55'914.5
2018-Jan-11 13:24N 55°36' E 015°09'714.4
2018-Jan-11 12:55N 55°38' E 015°21'  

Dump ship's entire track history